Time;durP1;ratioP1;P1;durP2;ratioP2;P2;SDS_P1;SDS_P2;PMS_P1;PMS_P2;Temp;Humidity;BMP_temperature;BMP_pressure;BME280_temperature;BME280_humidity;BME280_pressure;Samples;Min_cycle;Max_cycle;Signal;HPM_P1;HPM_P2
2023/05/07 00:00:29;;;;;;;7.37;2.80;;;13.00;99.90;;;;;;492513;241;28798;-76
2023/05/07 00:02:33;;;;;;;3.20;2.90;;;13.00;99.90;;;;;;492942;241;28283;-75
2023/05/07 00:04:36;;;;;;;3.10;2.90;;;13.00;99.90;;;;;;492501;241;28434;-76
2023/05/07 00:06:33;;;;;;;2.90;2.70;;;13.00;99.90;;;;;;482999;241;28488;-77
2023/05/07 00:08:34;;;;;;;3.17;2.87;;;13.00;99.90;;;;;;490798;242;28183;-75
2023/05/07 00:10:35;;;;;;;4.63;2.83;;;12.90;99.90;;;;;;480197;247;28397;-77
2023/05/07 00:12:36;;;;;;;2.73;2.53;;;12.90;99.90;;;;;;480119;246;28327;-76
2023/05/07 00:16:45;;;;;;;3.60;2.63;;;12.80;99.90;;;;;;482181;233;28364;-76
2023/05/07 00:18:46;;;;;;;2.43;2.23;;;12.70;99.90;;;;;;489036;243;28289;-76
2023/05/07 00:20:47;;;;;;;3.70;2.53;;;12.70;99.90;;;;;;483219;246;28260;-76
2023/05/07 00:22:48;;;;;;;2.67;2.47;;;12.60;99.90;;;;;;483082;246;28231;-76
2023/05/07 00:24:50;;;;;;;4.10;3.20;;;12.50;99.90;;;;;;483079;245;28226;-75
2023/05/07 00:26:52;;;;;;;3.07;2.87;;;12.50;99.90;;;;;;483156;245;28273;-76
2023/05/07 00:28:52;;;;;;;3.17;2.87;;;12.40;99.90;;;;;;483113;245;28085;-76
2023/05/07 00:30:54;;;;;;;3.17;2.50;;;12.40;99.90;;;;;;483213;245;28326;-77
2023/05/07 00:32:55;;;;;;;3.63;3.17;;;12.40;99.90;;;;;;483199;245;28207;-76
2023/05/07 00:37:34;;;;;;;3.27;2.63;;;12.20;99.90;;;;;;477819;243;28787;-76
2023/05/07 00:39:35;;;;;;;3.13;2.70;;;12.20;99.90;;;;;;481431;247;28098;-76
2023/05/07 00:41:37;;;;;;;2.93;2.73;;;12.20;99.90;;;;;;477637;246;28103;-76
2023/05/07 00:43:38;;;;;;;2.80;2.60;;;12.20;99.90;;;;;;481480;247;28122;-77
2023/05/07 00:45:39;;;;;;;7.70;3.03;;;12.20;99.90;;;;;;477518;246;28279;-76
2023/05/07 00:47:40;;;;;;;4.93;2.33;;;12.20;99.90;;;;;;481461;246;28221;-75
2023/05/07 00:49:42;;;;;;;3.43;2.67;;;12.20;99.90;;;;;;477571;246;28230;-75
2023/05/07 00:51:43;;;;;;;3.00;2.80;;;12.10;99.90;;;;;;481420;247;28101;-76
2023/05/07 00:53:44;;;;;;;4.40;3.37;;;12.20;99.90;;;;;;477688;246;28136;-76
2023/05/07 00:55:45;;;;;;;5.03;3.20;;;12.10;99.90;;;;;;481337;245;28582;-76
2023/05/07 00:57:47;;;;;;;3.37;3.07;;;12.10;99.90;;;;;;477635;246;28745;-76
2023/05/07 00:59:48;;;;;;;2.80;2.60;;;12.10;99.90;;;;;;481450;247;28782;-76
2023/05/07 01:01:49;;;;;;;3.90;2.73;;;12.10;99.90;;;;;;477580;246;28622;-75
2023/05/07 01:03:50;;;;;;;5.00;2.90;;;12.10;99.90;;;;;;481434;246;28473;-76
2023/05/07 01:05:52;;;;;;;4.00;3.07;;;12.10;99.90;;;;;;477539;246;28309;-76
2023/05/07 01:07:54;;;;;;;3.93;2.70;;;;;;;;;;481442;245;28772;-76
2023/05/07 01:09:55;;;;;;;5.43;2.67;;;12.00;99.90;;;;;;477561;249;26918;-76
2023/05/07 01:11:57;;;;;;;3.97;3.27;;;12.00;99.90;;;;;;481405;245;28802;-77
2023/05/07 01:13:58;;;;;;;3.63;2.97;;;11.90;99.90;;;;;;477636;247;28823;-76
2023/05/07 01:15:59;;;;;;;3.60;2.80;;;11.90;99.90;;;;;;478779;240;28482;-76
2023/05/07 01:18:00;;;;;;;2.43;2.23;;;11.90;99.90;;;;;;477277;249;29021;-76
2023/05/07 01:20:04;;;;;;;3.13;2.83;;;12.00;99.90;;;;;;475362;250;28040;-75
2023/05/07 01:22:04;;;;;;;2.37;2.17;;;12.00;99.90;;;;;;475068;250;28401;-76
2023/05/07 01:24:04;;;;;;;2.97;2.77;;;11.90;99.90;;;;;;475353;250;28786;-75
2023/05/07 01:26:05;;;;;;;4.03;2.80;;;11.90;99.90;;;;;;475336;250;28382;-76
2023/05/07 01:28:07;;;;;;;3.20;2.93;;;11.90;99.90;;;;;;475379;250;28262;-76
2023/05/07 01:30:08;;;;;;;3.93;3.07;;;11.90;99.90;;;;;;475382;250;28182;-76
2023/05/07 01:32:09;;;;;;;4.67;2.60;;;11.80;99.90;;;;;;475286;250;29268;-75
2023/05/07 01:34:10;;;;;;;3.67;2.57;;;11.90;99.90;;;;;;475351;250;28944;-75
2023/05/07 01:36:12;;;;;;;4.93;2.60;;;11.80;99.90;;;;;;475223;250;28921;-76
2023/05/07 01:38:13;;;;;;;3.07;2.70;;;11.80;99.90;;;;;;475268;250;28445;-75
2023/05/07 01:40:14;;;;;;;4.60;2.70;;;11.80;99.90;;;;;;475335;250;28619;-76
2023/05/07 01:42:15;;;;;;;3.13;2.93;;;11.80;99.90;;;;;;475297;250;28890;-73
2023/05/07 01:44:17;;;;;;;3.20;2.90;;;11.80;99.90;;;;;;475378;250;28782;-76
2023/05/07 01:46:18;;;;;;;3.30;3.00;;;11.80;99.90;;;;;;475334;250;28041;-76
2023/05/07 01:48:19;;;;;;;2.77;2.50;;;11.80;99.90;;;;;;475382;250;28470;-74
2023/05/07 01:50:21;;;;;;;3.93;2.90;;;11.70;99.90;;;;;;475414;245;28162;-76
2023/05/07 01:52:24;;;;;;;2.83;2.27;;;11.70;99.90;;;;;;475396;250;28500;-75
2023/05/07 01:54:23;;;;;;;3.07;2.77;;;11.70;99.90;;;;;;474996;250;29312;-75
2023/05/07 01:56:24;;;;;;;4.13;3.00;;;11.70;99.90;;;;;;488383;234;28615;-77
2023/05/07 01:58:25;;;;;;;3.07;2.57;;;11.70;99.90;;;;;;483753;246;28801;-75
2023/05/07 02:00:27;;;;;;;2.70;2.50;;;11.60;99.90;;;;;;483787;246;28388;-76
2023/05/07 02:02:28;;;;;;;2.50;2.30;;;11.60;99.90;;;;;;483768;246;28013;-75
2023/05/07 02:04:29;;;;;;;3.43;2.73;;;11.70;99.90;;;;;;483679;246;27969;-76
2023/05/07 02:06:30;;;;;;;2.67;2.47;;;11.60;99.90;;;;;;483800;246;28366;-76
2023/05/07 02:08:35;;;;;;;2.83;2.63;;;11.50;99.90;;;;;;483741;246;28396;-76
2023/05/07 02:10:33;;;;;;;3.67;3.37;;;11.50;99.90;;;;;;483623;246;28455;-75
2023/05/07 02:12:34;;;;;;;2.97;2.73;;;11.50;99.90;;;;;;483806;241;28520;-75
2023/05/07 02:16:56;;;;;;;3.00;2.70;;;11.50;99.90;;;;;;468810;254;28903;-76
2023/05/07 02:18:58;;;;;;;4.17;2.70;;;11.40;99.90;;;;;;468709;253;28288;-75
2023/05/07 02:20:59;;;;;;;2.40;2.27;;;11.40;99.90;;;;;;468763;253;28537;-75
2023/05/07 02:23:00;;;;;;;2.83;2.63;;;11.40;99.90;;;;;;468775;253;28252;-75
2023/05/07 02:27:06;;;;;;;3.53;2.50;;;11.30;99.90;;;;;;481751;247;28187;-75
2023/05/07 02:29:08;;;;;;;5.00;2.77;;;11.30;99.90;;;;;;481660;246;28429;-75
2023/05/07 02:31:09;;;;;;;2.97;2.67;;;11.30;99.90;;;;;;481637;247;28937;-76
2023/05/07 02:33:13;;;;;;;2.57;2.37;;;11.20;99.90;;;;;;492442;241;28653;-77
2023/05/07 02:35:14;;;;;;;3.57;2.73;;;11.20;99.90;;;;;;472988;250;29102;-76
2023/05/07 02:37:15;;;;;;;3.67;2.83;;;11.30;99.90;;;;;;492445;241;28251;-76
2023/05/07 02:39:17;;;;;;;2.60;2.40;;;11.20;99.90;;;;;;473049;250;28217;-75
2023/05/07 02:41:18;;;;;;;4.07;2.90;;;11.20;99.90;;;;;;492468;241;28164;-75
2023/05/07 02:43:19;;;;;;;5.17;2.53;;;11.20;99.90;;;;;;473047;250;28447;-77
2023/05/07 02:45:20;;;;;;;3.20;2.83;;;11.10;99.90;;;;;;492408;241;28117;-75
2023/05/07 02:47:22;;;;;;;3.70;2.43;;;11.10;99.90;;;;;;473059;250;28154;-75
2023/05/07 02:49:23;;;;;;;2.63;2.37;;;11.10;99.90;;;;;;492441;241;28153;-75
2023/05/07 02:51:25;;;;;;;7.03;2.80;;;11.10;99.90;;;;;;473026;249;28454;-76
2023/05/07 02:53:26;;;;;;;2.83;2.60;;;11.10;99.90;;;;;;492387;241;28210;-76
2023/05/07 02:55:27;;;;;;;2.60;2.23;;;11.10;99.90;;;;;;473006;250;28700;-76
2023/05/07 02:57:28;;;;;;;3.27;2.83;;;11.00;99.90;;;;;;492366;241;28728;-76
2023/05/07 02:59:29;;;;;;;2.77;2.57;;;11.00;99.90;;;;;;472996;250;28645;-75
2023/05/07 03:01:30;;;;;;;3.17;2.87;;;11.00;99.90;;;;;;492428;241;28337;-76
2023/05/07 03:03:32;;;;;;;3.27;2.60;;;10.90;99.90;;;;;;472997;250;28142;-76
2023/05/07 03:05:33;;;;;;;3.20;2.73;;;10.90;99.90;;;;;;482638;246;28161;-75
2023/05/07 03:07:34;;;;;;;3.30;3.00;;;10.90;99.90;;;;;;472746;250;28454;-76
2023/05/07 03:09:36;;;;;;;2.70;2.50;;;10.90;99.90;;;;;;481629;247;28039;-76
2023/05/07 03:11:37;;;;;;;4.60;2.87;;;10.90;99.90;;;;;;492379;241;28160;-76
2023/05/07 03:13:38;;;;;;;5.17;3.27;;;10.80;99.90;;;;;;472945;250;28588;-75
2023/05/07 03:15:39;;;;;;;2.77;2.57;;;10.80;99.90;;;;;;486708;241;28321;-75
2023/05/07 03:17:41;;;;;;;4.70;3.47;;;10.80;99.90;;;;;;512284;232;28191;-76
2023/05/07 03:19:42;;;;;;;3.13;2.83;;;10.70;99.90;;;;;;512321;232;28816;-75
2023/05/07 03:21:43;;;;;;;3.97;2.83;;;10.60;99.90;;;;;;512352;232;28644;-76
2023/05/07 03:23:44;;;;;;;3.33;3.03;;;10.70;99.90;;;;;;512298;232;28741;-75
2023/05/07 03:25:45;;;;;;;2.90;2.70;;;10.70;99.90;;;;;;512335;232;28641;-75
2023/05/07 03:27:47;;;;;;;4.70;2.63;;;10.70;99.90;;;;;;512351;232;28011;-76
2023/05/07 03:29:48;;;;;;;2.60;2.40;;;10.60;99.90;;;;;;512343;232;28118;-76
2023/05/07 03:31:49;;;;;;;2.80;2.60;;;10.60;99.90;;;;;;512119;232;29328;-76
2023/05/07 03:33:51;;;;;;;3.03;2.80;;;10.60;99.90;;;;;;512199;232;28017;-75
2023/05/07 03:40:18;;;;;;;3.10;2.80;;;10.60;99.90;;;;;;492263;236;28319;-79
2023/05/07 03:42:20;;;;;;;3.07;2.77;;;10.50;99.90;;;;;;503386;236;28442;-79
2023/05/07 03:44:21;;;;;;;4.20;2.80;;;10.60;99.90;;;;;;503378;236;28289;-80
2023/05/07 03:46:22;;;;;;;3.30;3.10;;;10.50;99.90;;;;;;503421;236;27973;-77
2023/05/07 03:48:23;;;;;;;3.90;3.00;;;10.50;99.90;;;;;;503379;236;28108;-77
2023/05/07 03:50:25;;;;;;;2.70;2.27;;;10.60;99.90;;;;;;503342;236;28491;-77
2023/05/07 03:52:26;;;;;;;2.60;2.40;;;10.60;99.90;;;;;;503362;236;28294;-78
2023/05/07 03:54:27;;;;;;;4.03;2.50;;;10.60;99.90;;;;;;503336;236;28087;-77
2023/05/07 03:56:29;;;;;;;2.60;2.40;;;10.60;99.90;;;;;;503377;236;28056;-77
2023/05/07 03:58:30;;;;;;;2.97;2.73;;;10.60;99.90;;;;;;503327;236;27972;-78
2023/05/07 04:00:33;;;;;;;2.97;2.77;;;10.50;99.90;;;;;;503332;236;28638;-77
2023/05/07 04:02:33;;;;;;;3.43;2.27;;;10.50;99.90;;;;;;503170;236;28458;-78
2023/05/07 04:04:34;;;;;;;4.10;2.40;;;10.40;99.90;;;;;;503341;236;28052;-80
2023/05/07 04:06:37;;;;;;;5.03;3.23;;;10.50;99.90;;;;;;503364;236;28130;-79
2023/05/07 04:08:38;;;;;;;6.80;3.40;;;10.40;99.90;;;;;;503409;236;28054;-77
2023/05/07 04:10:39;;;;;;;4.90;3.53;;;10.40;99.90;;;;;;503398;236;27977;-76
2023/05/07 04:12:40;;;;;;;3.43;2.97;;;10.50;99.90;;;;;;503404;236;28463;-77
2023/05/07 04:14:42;;;;;;;3.57;2.87;;;10.60;99.90;;;;;;503362;236;28463;-77
2023/05/07 04:16:43;;;;;;;2.80;2.37;;;10.50;99.90;;;;;;503342;236;28410;-77
2023/05/07 04:18:44;;;;;;;3.10;2.80;;;10.60;99.90;;;;;;503380;236;28076;-77
2023/05/07 04:20:45;;;;;;;3.40;3.10;;;10.60;99.90;;;;;;503387;236;28077;-77
2023/05/07 04:22:47;;;;;;;5.63;3.43;;;10.70;99.90;;;;;;503336;236;28033;-78
2023/05/07 04:24:48;;;;;;;3.50;2.60;;;10.70;99.90;;;;;;503387;236;28168;-77
2023/05/07 04:26:51;;;;;;;3.90;3.07;;;10.60;99.90;;;;;;503333;236;28070;-78
2023/05/07 04:28:50;;;;;;;3.70;2.93;;;10.60;99.90;;;;;;503271;236;28143;-76
2023/05/07 04:30:53;;;;;;;3.83;3.50;;;10.60;99.90;;;;;;503350;236;28189;-77
2023/05/07 04:32:54;;;;;;;5.57;3.50;;;10.70;99.90;;;;;;503352;236;28259;-77
2023/05/07 04:34:57;;;;;;;3.40;3.10;;;10.70;99.90;;;;;;503364;236;28093;-78
2023/05/07 04:36:59;;;;;;;3.70;2.80;;;10.70;99.90;;;;;;503389;236;28304;-79
2023/05/07 04:39:00;;;;;;;3.40;3.10;;;10.80;99.90;;;;;;503392;236;28052;-78
2023/05/07 04:41:02;;;;;;;3.50;3.07;;;10.80;99.90;;;;;;503386;236;28784;-77
2023/05/07 04:43:04;;;;;;;3.83;3.10;;;10.80;99.90;;;;;;500838;236;28151;-77
2023/05/07 04:45:05;;;;;;;4.97;3.10;;;10.90;99.90;;;;;;500568;237;28278;-79
2023/05/07 04:47:06;;;;;;;3.40;3.10;;;11.00;99.90;;;;;;500592;237;28816;-77
2023/05/07 04:49:07;;;;;;;3.07;2.83;;;11.00;99.90;;;;;;500525;237;28785;-78
2023/05/07 04:51:08;;;;;;;6.50;4.03;;;11.10;99.90;;;;;;500626;237;28791;-77
2023/05/07 04:53:11;;;;;;;5.97;3.50;;;11.10;99.90;;;;;;500619;237;28054;-78
2023/05/07 04:55:12;;;;;;;3.30;3.00;;;11.20;99.90;;;;;;500596;237;28207;-77
2023/05/07 04:57:13;;;;;;;3.83;3.43;;;11.20;99.90;;;;;;500600;237;28168;-78
2023/05/07 04:59:14;;;;;;;3.37;3.07;;;11.20;99.90;;;;;;500615;237;28367;-78
2023/05/07 05:01:16;;;;;;;4.30;3.10;;;11.40;99.90;;;;;;500649;237;28929;-78
2023/05/07 05:03:17;;;;;;;3.93;3.50;;;11.40;99.90;;;;;;500664;237;28675;-78
2023/05/07 05:05:18;;;;;;;7.77;5.70;;;11.40;99.90;;;;;;500578;237;28783;-78
2023/05/07 05:07:19;;;;;;;10.23;8.40;;;11.50;99.90;;;;;;500585;237;28167;-78
2023/05/07 05:09:21;;;;;;;7.20;5.90;;;11.50;99.90;;;;;;500633;237;28997;-79
2023/05/07 05:11:22;;;;;;;7.20;5.57;;;11.50;99.90;;;;;;500612;237;28627;-77
2023/05/07 05:13:23;;;;;;;7.17;5.63;;;11.60;99.90;;;;;;500615;237;28746;-77
2023/05/07 05:15:30;;;;;;;5.63;4.83;;;11.70;99.90;;;;;;500567;237;28341;-77
2023/05/07 05:17:34;;;;;;;4.60;4.20;;;11.60;99.90;;;;;;500622;237;28002;-78
2023/05/07 05:19:33;;;;;;;3.90;3.60;;;11.50;99.90;;;;;;500483;237;29199;-77
2023/05/07 05:21:34;;;;;;;3.87;3.57;;;11.60;99.90;;;;;;500631;237;28382;-77
2023/05/07 05:23:35;;;;;;;4.30;3.27;;;11.70;99.90;;;;;;500616;237;28440;-78
2023/05/07 05:25:39;;;;;;;3.50;3.20;;;11.80;99.90;;;;;;500584;237;28805;-77
2023/05/07 05:27:38;;;;;;;3.73;3.30;;;11.90;99.90;;;;;;500528;237;28061;-78
2023/05/07 05:29:39;;;;;;;3.23;3.03;;;11.90;99.90;;;;;;500592;237;28608;-77
2023/05/07 05:31:41;;;;;;;3.53;3.23;;;12.10;99.90;;;;;;500616;237;28489;-78
2023/05/07 05:33:42;;;;;;;3.10;2.80;;;12.20;99.90;;;;;;500609;237;28755;-77
2023/05/07 05:35:43;;;;;;;3.70;3.40;;;12.30;99.90;;;;;;500545;237;28503;-77
2023/05/07 05:37:44;;;;;;;3.27;3.07;;;12.40;99.90;;;;;;500549;235;28312;-78
2023/05/07 05:39:45;;;;;;;3.47;3.17;;;12.50;99.90;;;;;;500642;237;28885;-77
2023/05/07 05:41:48;;;;;;;4.97;3.23;;;;;;;;;;500574;236;28067;-78
2023/05/07 05:43:49;;;;;;;6.10;3.37;;;12.60;99.90;;;;;;500606;236;26360;-77
2023/05/07 05:45:50;;;;;;;38.43;8.00;;;12.80;99.90;;;;;;500605;237;28149;-78
2023/05/07 05:47:53;;;;;;;8.00;3.93;;;12.90;99.90;;;;;;497838;237;28250;-79
2023/05/07 05:49:56;;;;;;;4.40;3.17;;;12.90;99.90;;;;;;492504;241;28108;-78
2023/05/07 05:51:57;;;;;;;3.73;3.40;;;13.10;99.90;;;;;;492579;241;28173;-77
2023/05/07 05:53:59;;;;;;;3.00;2.70;;;13.10;99.90;;;;;;492529;241;28724;-77
2023/05/07 05:56:01;;;;;;;3.33;3.00;;;13.10;99.90;;;;;;495153;234;28058;-77
2023/05/07 05:58:03;;;;;;;2.37;2.27;;;13.10;99.90;;;;;;507895;233;28343;-78
2023/05/07 06:00:04;;;;;;;3.30;3.00;;;12.90;99.90;;;;;;506872;233;28390;-78
2023/05/07 06:02:06;;;;;;;4.17;3.87;;;12.90;99.90;;;;;;507956;233;28611;-78
2023/05/07 06:04:10;;;;;;;6.07;4.70;;;13.10;99.90;;;;;;507923;233;29308;-78
2023/05/07 06:06:11;;;;;;;5.27;4.77;;;13.10;99.90;;;;;;507979;233;28926;-79
2023/05/07 06:08:13;;;;;;;3.40;3.20;;;13.20;99.90;;;;;;501082;233;28893;-79
2023/05/07 06:10:14;;;;;;;2.83;2.63;;;13.20;99.90;;;;;;496267;239;28706;-76
2023/05/07 06:12:16;;;;;;;3.77;3.13;;;13.40;99.90;;;;;;496194;239;28774;-77
2023/05/07 06:14:18;;;;;;;3.23;2.93;;;13.50;99.90;;;;;;496290;239;28282;-76
2023/05/07 06:16:19;;;;;;;2.80;2.60;;;13.70;99.90;;;;;;496259;239;28401;-78
2023/05/07 06:18:27;;;;;;;3.37;3.07;;;13.70;99.90;;;;;;496302;239;28922;-76
2023/05/07 06:20:28;;;;;;;3.90;3.50;;;13.90;99.90;;;;;;496264;239;28691;-76
2023/05/07 06:22:31;;;;;;;3.60;3.30;;;14.00;99.90;;;;;;496342;239;28801;-76
2023/05/07 06:24:32;;;;;;;3.50;3.30;;;14.10;99.90;;;;;;496336;239;28758;-76
2023/05/07 06:26:34;;;;;;;4.00;3.70;;;14.20;99.90;;;;;;496290;239;28745;-76
2023/05/07 06:28:38;;;;;;;5.17;4.30;;;14.30;99.90;;;;;;496297;239;28726;-76
2023/05/07 06:30:40;;;;;;;5.10;2.77;;;14.40;99.90;;;;;;496310;239;28427;-78
2023/05/07 06:32:41;;;;;;;2.90;2.70;;;14.70;99.90;;;;;;496258;239;28893;-77
2023/05/07 06:34:42;;;;;;;3.23;2.53;;;14.90;99.90;;;;;;496271;239;28705;-76
2023/05/07 06:36:43;;;;;;;2.67;2.20;;;15.10;99.90;;;;;;496285;239;28765;-80
2023/05/07 06:38:57;;;;;;;2.57;2.37;;;15.20;99.90;;;;;;496307;239;28681;-76
2023/05/07 06:40:58;;;;;;;6.27;2.30;;;15.40;99.90;;;;;;496305;239;28680;-78
2023/05/07 06:42:59;;;;;;;3.60;2.27;;;15.40;99.90;;;;;;496218;239;28663;-76
2023/05/07 06:45:00;;;;;;;2.40;2.20;;;15.50;99.90;;;;;;496292;239;28670;-76
2023/05/07 06:47:02;;;;;;;2.30;2.10;;;15.60;99.90;;;;;;496249;239;29162;-78
2023/05/07 06:49:03;;;;;;;3.23;2.10;;;15.80;99.90;;;;;;496257;239;28700;-76
2023/05/07 06:51:15;;;;;;;2.20;2.00;;;16.00;99.90;;;;;;496225;239;28710;-77
2023/05/07 06:53:16;;;;;;;5.43;2.37;;;16.10;99.90;;;;;;496290;239;28704;-75
2023/05/07 06:55:19;;;;;;;3.13;2.60;;;16.20;99.90;;;;;;496268;239;28667;-76
2023/05/07 06:57:18;;;;;;;2.63;2.10;;;16.30;99.90;;;;;;496055;239;29138;-75
2023/05/07 06:59:20;;;;;;;2.30;2.00;;;16.30;99.90;;;;;;496244;239;29378;-77
2023/05/07 07:01:21;;;;;;;2.27;1.70;;;16.50;99.90;;;;;;496306;239;29144;-76
2023/05/07 07:03:22;;;;;;;2.00;1.73;;;16.60;99.90;;;;;;496227;239;28680;-76
2023/05/07 07:05:23;;;;;;;3.20;2.27;;;16.80;99.90;;;;;;496222;239;28700;-76
2023/05/07 07:07:25;;;;;;;2.30;1.77;;;16.70;99.90;;;;;;496231;239;28725;-76
2023/05/07 07:09:26;;;;;;;2.30;1.93;;;16.80;99.90;;;;;;496241;239;28700;-81
2023/05/07 07:11:27;;;;;;;2.50;2.30;;;16.80;99.90;;;;;;496302;239;28669;-75
2023/05/07 07:13:35;;;;;;;4.03;2.27;;;16.90;99.90;;;;;;496206;239;29259;-75
2023/05/07 07:15:36;;;;;;;3.57;2.10;;;16.90;99.90;;;;;;496258;239;28657;-75
2023/05/07 07:17:37;;;;;;;4.43;2.00;;;17.10;99.90;;;;;;496213;239;28695;-76
2023/05/07 07:19:39;;;;;;;2.03;1.70;;;17.20;99.90;;;;;;496226;239;29265;-78
2023/05/07 07:21:40;;;;;;;3.60;2.10;;;17.40;99.90;;;;;;496220;239;29145;-75
2023/05/07 07:23:41;;;;;;;2.60;2.23;;;17.50;99.90;;;;;;496150;239;29284;-77
2023/05/07 07:25:42;;;;;;;2.20;1.90;;;17.40;99.90;;;;;;496302;237;28641;-76
2023/05/07 07:27:43;;;;;;;3.10;1.97;;;17.60;99.90;;;;;;500604;237;28901;-76
2023/05/07 07:29:45;;;;;;;3.90;2.07;;;17.70;99.90;;;;;;500593;237;28855;-74
2023/05/07 07:31:46;;;;;;;1.90;1.70;;;17.50;99.90;;;;;;500557;237;28664;-76
2023/05/07 07:33:49;;;;;;;2.10;1.50;;;17.70;99.90;;;;;;500566;237;28698;-76
2023/05/07 07:35:48;;;;;;;2.17;1.97;;;17.90;99.90;;;;;;500482;237;28664;-75
2023/05/07 07:37:50;;;;;;;3.07;1.97;;;18.10;99.90;;;;;;500644;237;28698;-77
2023/05/07 07:39:51;;;;;;;3.50;2.00;;;18.20;99.90;;;;;;500653;235;29284;-77
2023/05/07 07:41:52;;;;;;;2.50;1.80;;;18.30;99.90;;;;;;500626;237;29231;-76
2023/05/07 07:43:58;;;;;;;1.80;1.70;;;18.20;99.90;;;;;;500650;237;29202;-76
2023/05/07 07:45:59;;;;;;;3.63;2.10;;;18.30;99.90;;;;;;500593;237;28713;-76
2023/05/07 07:48:07;;;;;;;3.00;1.60;;;18.40;99.90;;;;;;500646;237;29190;-75
2023/05/07 07:50:08;;;;;;;1.80;1.70;;;18.40;99.90;;;;;;500609;237;28693;-76
2023/05/07 07:52:09;;;;;;;1.40;1.30;;;18.30;99.90;;;;;;500612;237;29254;-77
2023/05/07 07:54:11;;;;;;;3.00;1.43;;;18.40;99.90;;;;;;500587;237;29258;-76
2023/05/07 07:56:12;;;;;;;1.93;1.83;;;18.40;99.90;;;;;;500506;237;29184;-77
2023/05/07 07:58:13;;;;;;;3.00;1.87;;;18.40;99.90;;;;;;500591;237;29126;-76
2023/05/07 08:00:15;;;;;;;7.30;2.10;;;18.40;99.90;;;;;;500643;237;28741;-76
2023/05/07 08:02:16;;;;;;;2.10;1.83;;;18.10;99.90;;;;;;500649;235;28795;-78
2023/05/07 08:04:17;;;;;;;2.67;2.47;;;18.10;99.90;;;;;;500603;237;28725;-77
2023/05/07 08:06:19;;;;;;;2.33;2.10;;;18.10;99.90;;;;;;500589;237;28707;-76
2023/05/07 08:08:20;;;;;;;1.97;1.80;;;18.10;99.90;;;;;;500615;237;29288;-76
2023/05/07 08:10:21;;;;;;;2.40;1.80;;;18.30;99.90;;;;;;500536;237;29249;-76
2023/05/07 08:12:24;;;;;;;9.10;2.13;;;18.50;99.90;;;;;;500404;237;29348;-76
2023/05/07 08:14:25;;;;;;;1.97;1.83;;;18.70;99.90;;;;;;500395;237;28797;-76
2023/05/07 08:16:27;;;;;;;4.60;2.43;;;18.70;99.90;;;;;;500435;237;29370;-75
2023/05/07 08:20:47;;;;;;;2.10;1.90;;;19.00;99.90;;;;;;500532;237;28704;-75
2023/05/07 08:22:54;;;;;;;2.80;2.03;;;19.10;99.90;;;;;;500557;237;29139;-77
2023/05/07 08:24:55;;;;;;;3.43;1.90;;;19.30;99.90;;;;;;500617;237;28733;-76
2023/05/07 08:26:57;;;;;;;1.90;1.80;;;19.30;99.90;;;;;;500618;237;28802;-75
2023/05/07 08:28:58;;;;;;;1.93;1.73;;;19.20;99.90;;;;;;500628;236;28775;-76
2023/05/07 08:31:00;;;;;;;2.73;1.83;;;19.40;99.90;;;;;;500670;237;28813;-75
2023/05/07 08:33:07;;;;;;;2.23;2.03;;;19.50;99.90;;;;;;500620;237;29137;-76
2023/05/07 08:35:08;;;;;;;1.90;1.73;;;19.60;99.90;;;;;;500663;237;28713;-76
2023/05/07 08:37:09;;;;;;;1.63;1.53;;;19.90;99.90;;;;;;500661;237;28689;-77
2023/05/07 08:39:10;;;;;;;1.93;1.73;;;19.90;99.90;;;;;;500633;237;28794;-77
2023/05/07 08:41:12;;;;;;;1.67;1.57;;;20.00;99.90;;;;;;500606;237;28814;-76
2023/05/07 08:43:13;;;;;;;1.90;1.80;;;20.30;99.90;;;;;;500659;237;28837;-76
2023/05/07 08:45:14;;;;;;;2.30;1.83;;;20.30;99.90;;;;;;500635;234;28781;-75
2023/05/07 08:47:15;;;;;;;2.40;1.90;;;20.30;99.90;;;;;;500631;237;28697;-76
2023/05/07 08:49:17;;;;;;;3.60;2.00;;;20.20;99.90;;;;;;500654;237;28693;-76
2023/05/07 08:51:18;;;;;;;1.90;1.80;;;20.30;99.90;;;;;;500651;237;29152;-75
2023/05/07 08:53:20;;;;;;;1.90;1.80;;;20.40;99.90;;;;;;500633;235;29260;-77
2023/05/07 08:55:24;;;;;;;2.13;1.90;;;20.50;99.90;;;;;;500624;237;29232;-75
2023/05/07 08:57:25;;;;;;;4.60;2.20;;;20.90;99.90;;;;;;500671;237;28896;-75
2023/05/07 08:59:26;;;;;;;2.20;1.90;;;21.00;99.90;;;;;;500643;237;28684;-76
2023/05/07 09:01:27;;;;;;;8.67;1.63;;;21.00;99.90;;;;;;500618;237;29153;-76
2023/05/07 09:03:35;;;;;;;9.20;1.87;;;21.00;99.90;;;;;;500631;237;29240;-75
2023/05/07 09:05:36;;;;;;;2.60;1.90;;;21.20;99.90;;;;;;500608;237;28725;-76
2023/05/07 09:07:37;;;;;;;2.13;2.00;;;21.30;99.90;;;;;;500650;237;29311;-77
2023/05/07 09:09:39;;;;;;;3.13;2.40;;;21.30;99.30;;;;;;500642;237;29170;-76
2023/05/07 09:11:40;;;;;;;2.10;1.90;;;21.70;99.50;;;;;;500638;237;29255;-75
2023/05/07 09:13:43;;;;;;;2.50;1.93;;;22.00;98.60;;;;;;500621;237;29999;-75
2023/05/07 09:15:44;;;;;;;6.50;2.27;;;22.00;97.60;;;;;;500612;237;28682;-75
2023/05/07 09:17:46;;;;;;;1.80;1.70;;;21.50;97.50;;;;;;500597;237;28723;-77
2023/05/07 09:19:53;;;;;;;2.30;2.10;;;21.30;98.30;;;;;;500649;237;29115;-75
2023/05/07 09:21:54;;;;;;;2.90;1.77;;;21.10;98.90;;;;;;500627;237;28710;-76
2023/05/07 09:23:56;;;;;;;1.63;1.53;;;21.30;97.70;;;;;;500647;237;28708;-75
2023/05/07 09:25:58;;;;;;;2.20;2.00;;;21.60;98.40;;;;;;500632;237;29368;-76
2023/05/07 09:27:58;;;;;;;2.28;1.90;;;21.70;98.00;;;;;;499289;237;36446;-77
2023/05/07 09:29:59;;;;;;;2.70;2.17;;;21.70;97.40;;;;;;500651;235;27807;-76
2023/05/07 09:32:00;;;;;;;3.30;2.27;;;21.50;97.40;;;;;;500694;237;28705;-76
2023/05/07 09:34:02;;;;;;;1.70;1.60;;;21.50;96.70;;;;;;500662;237;28695;-79
2023/05/07 09:36:03;;;;;;;2.53;2.00;;;21.70;97.70;;;;;;500688;237;28646;-76
2023/05/07 09:38:04;;;;;;;3.53;1.93;;;22.10;97.60;;;;;;500650;235;28784;-77
2023/05/07 09:40:06;;;;;;;2.30;2.10;;;22.10;96.90;;;;;;500678;237;28799;-76
2023/05/07 09:42:07;;;;;;;3.30;2.00;;;22.10;95.80;;;;;;500670;237;28669;-76
2023/05/07 09:44:08;;;;;;;2.93;2.40;;;21.80;95.30;;;;;;500698;237;28708;-75
2023/05/07 09:46:09;;;;;;;2.27;1.67;;;21.50;96.60;;;;;;500638;237;28719;-76
2023/05/07 09:48:11;;;;;;;1.70;1.60;;;21.40;96.40;;;;;;500696;237;29169;-76
2023/05/07 09:50:12;;;;;;;2.13;1.90;;;21.40;96.70;;;;;;500700;235;29900;-75
2023/05/07 09:52:13;;;;;;;1.90;1.80;;;21.60;96.60;;;;;;500728;237;29244;-76
2023/05/07 09:54:14;;;;;;;2.33;1.90;;;21.50;95.90;;;;;;500671;237;28713;-76
2023/05/07 09:56:16;;;;;;;2.17;1.93;;;21.70;96.50;;;;;;500716;237;28738;-76
2023/05/07 09:58:17;;;;;;;1.70;1.60;;;21.50;95.90;;;;;;500658;237;28694;-75
2023/05/07 10:00:19;;;;;;;1.93;1.83;;;21.70;95.60;;;;;;500702;237;28760;-81
2023/05/07 10:02:20;;;;;;;7.50;2.10;;;21.80;96.50;;;;;;500667;237;28651;-76
2023/05/07 10:04:21;;;;;;;1.83;1.73;;;21.60;95.70;;;;;;500627;237;29148;-77
2023/05/07 10:06:24;;;;;;;2.00;1.90;;;21.40;96.40;;;;;;500673;237;29143;-77
2023/05/07 10:08:25;;;;;;;2.00;1.90;;;21.00;95.40;;;;;;500653;237;28690;-76
2023/05/07 10:10:29;;;;;;;2.73;2.23;;;21.20;96.90;;;;;;500671;237;29253;-79
2023/05/07 10:12:37;;;;;;;4.67;2.03;;;21.20;99.50;;;;;;500683;237;28698;-77
2023/05/07 10:14:32;;;;;;;1.97;1.87;;;21.20;99.90;;;;;;500171;237;29118;-76
2023/05/07 10:16:36;;;;;;;2.10;1.90;;;21.20;99.90;;;;;;500655;237;29275;-76
2023/05/07 10:18:35;;;;;;;2.47;2.10;;;21.00;99.50;;;;;;500560;235;29435;-76
2023/05/07 10:20:36;;;;;;;4.17;2.10;;;21.00;99.90;;;;;;500669;237;29276;-76
2023/05/07 10:22:38;;;;;;;4.60;1.80;;;21.00;99.90;;;;;;500644;237;28704;-76
2023/05/07 10:24:38;;;;;;;2.00;1.90;;;21.00;99.90;;;;;;500443;237;28657;-76
2023/05/07 10:26:40;;;;;;;2.03;1.83;;;21.00;99.90;;;;;;500529;237;28714;-77
2023/05/07 10:28:41;;;;;;;1.83;1.70;;;21.10;99.90;;;;;;500448;237;28749;-76
2023/05/07 10:30:42;;;;;;;1.70;1.60;;;21.10;99.90;;;;;;500500;237;28899;-76
2023/05/07 10:32:43;;;;;;;2.30;2.10;;;21.10;99.90;;;;;;500536;237;29264;-77
2023/05/07 10:34:45;;;;;;;2.30;2.10;;;21.20;99.90;;;;;;500483;237;29196;-77
2023/05/07 10:36:46;;;;;;;1.90;1.80;;;21.20;99.90;;;;;;500364;237;29133;-76
2023/05/07 10:38:50;;;;;;;2.33;2.17;;;21.20;99.90;;;;;;500521;237;28908;-76
2023/05/07 10:40:51;;;;;;;2.20;2.00;;;21.30;99.90;;;;;;500550;235;28698;-76
2023/05/07 10:42:53;;;;;;;1.90;1.80;;;21.40;99.90;;;;;;500615;237;29229;-77
2023/05/07 10:44:55;;;;;;;2.10;1.90;;;21.40;99.90;;;;;;500491;237;28836;-76
2023/05/07 10:46:56;;;;;;;2.17;1.87;;;21.40;99.50;;;;;;500527;237;29285;-77
2023/05/07 10:48:57;;;;;;;1.90;1.80;;;21.40;99.90;;;;;;500498;237;28706;-79